createdAt,value
2022-11-09T00:01:04.603Z,11.08
2022-11-09T00:03:32.070Z,11.13
2022-11-09T00:06:01.063Z,11.16
2022-11-09T00:08:28.914Z,11.14
2022-11-09T00:11:02.632Z,11.13
2022-11-09T00:13:29.879Z,11.10
2022-11-09T00:16:00.379Z,11.11
2022-11-09T00:18:30.495Z,11.07
2022-11-09T00:20:57.749Z,11.08
2022-11-09T00:23:25.093Z,11.12
2022-11-09T00:25:52.364Z,11.15
2022-11-09T00:28:19.585Z,11.11
2022-11-09T00:30:47.868Z,11.08
2022-11-09T00:33:16.596Z,11.10
2022-11-09T00:35:44.048Z,11.11
2022-11-09T00:38:11.250Z,11.20
2022-11-09T00:40:38.855Z,11.22
2022-11-09T00:43:06.132Z,11.21
2022-11-09T00:45:33.256Z,11.19
2022-11-09T00:48:00.380Z,11.14
2022-11-09T00:50:27.844Z,11.13
2022-11-09T00:52:55.333Z,11.17
2022-11-09T00:55:24.031Z,11.19
2022-11-09T00:57:53.442Z,11.17
2022-11-09T01:00:24.476Z,11.16
2022-11-09T01:02:53.280Z,11.18
2022-11-09T01:05:20.519Z,11.26
2022-11-09T01:07:50.030Z,11.28
2022-11-09T01:10:17.398Z,11.23
2022-11-09T01:12:46.861Z,11.19
2022-11-09T01:15:15.489Z,11.15
2022-11-09T01:17:42.731Z,11.09
2022-11-09T01:20:11.350Z,11.06
2022-11-09T01:22:38.472Z,11.03
2022-11-09T01:25:06.854Z,10.98
2022-11-09T01:27:34.105Z,10.95
2022-11-09T01:30:01.222Z,10.97
2022-11-09T01:32:32.233Z,10.98
2022-11-09T01:34:59.439Z,10.97
2022-11-09T01:37:26.677Z,10.93
2022-11-09T01:39:53.845Z,10.90
2022-11-09T01:42:25.907Z,10.88
2022-11-09T01:45:18.029Z,10.92
2022-11-09T01:48:41.026Z,10.98
2022-11-09T01:51:25.219Z,10.99
2022-11-09T01:54:12.290Z,11.01
2022-11-09T01:56:40.501Z,10.99
2022-11-09T01:59:17.341Z,11.01
2022-11-09T02:01:45.741Z,11.09
2022-11-09T02:04:41.085Z,11.09
2022-11-09T02:07:11.424Z,11.10
2022-11-09T02:10:12.503Z,11.12
2022-11-09T02:12:40.632Z,11.10
2022-11-09T02:15:10.650Z,11.06
2022-11-09T02:17:41.237Z,11.05
2022-11-09T02:20:15.564Z,11.03
2022-11-09T02:22:42.911Z,11.01
2022-11-09T02:25:14.173Z,11.01
2022-11-09T02:27:44.253Z,10.95
2022-11-09T02:30:13.876Z,10.96
2022-11-09T02:32:41.237Z,10.98
2022-11-09T02:35:09.887Z,11.03
2022-11-09T02:37:50.100Z,10.98
2022-11-09T02:40:34.046Z,10.93
2022-11-09T02:43:02.207Z,10.92
2022-11-09T02:45:29.423Z,10.92
2022-11-09T02:47:56.708Z,10.98
2022-11-09T02:50:24.119Z,11.04
2022-11-09T02:52:51.348Z,11.09
2022-11-09T02:55:19.082Z,11.12
2022-11-09T02:57:46.613Z,11.19
2022-11-09T03:00:16.622Z,11.26
2022-11-09T03:02:45.911Z,11.30
2022-11-09T03:05:14.531Z,11.26
2022-11-09T03:07:43.767Z,11.24
2022-11-09T03:10:12.218Z,11.20
2022-11-09T03:12:39.592Z,11.22
2022-11-09T03:15:11.501Z,11.21
2022-11-09T03:17:42.944Z,11.20
2022-11-09T03:20:11.410Z,11.16
2022-11-09T03:22:39.806Z,11.18
2022-11-09T03:25:08.117Z,11.18
2022-11-09T03:27:35.371Z,11.17
2022-11-09T03:30:03.515Z,11.16
2022-11-09T03:32:31.191Z,11.13
2022-11-09T03:34:58.838Z,11.11
2022-11-09T03:37:26.201Z,11.10
2022-11-09T03:39:53.518Z,11.11
2022-11-09T03:42:20.781Z,11.08
2022-11-09T03:44:48.049Z,11.06
2022-11-09T03:47:15.372Z,11.01
2022-11-09T03:49:42.600Z,11.02
2022-11-09T03:52:09.790Z,11.02
2022-11-09T03:54:37.117Z,11.02
2022-11-09T03:57:04.349Z,11.05
2022-11-09T03:59:31.552Z,11.07
2022-11-09T04:01:58.809Z,11.08
2022-11-09T04:04:26.078Z,11.14
2022-11-09T04:06:53.361Z,11.17
2022-11-09T04:09:20.647Z,11.13
2022-11-09T04:11:47.807Z,11.10
2022-11-09T04:14:14.945Z,11.06
2022-11-09T04:16:42.212Z,11.03
2022-11-09T04:19:09.548Z,11.04
2022-11-09T04:21:36.715Z,11.03
2022-11-09T04:24:04.317Z,11.06
2022-11-09T04:26:31.592Z,11.07
2022-11-09T04:28:58.736Z,11.03
2022-11-09T04:31:28.141Z,11.01
2022-11-09T04:33:55.794Z,11.01
2022-11-09T04:36:23.177Z,11.04
2022-11-09T04:38:50.555Z,10.96
2022-11-09T04:41:17.967Z,10.93
2022-11-09T04:43:45.175Z,10.97
2022-11-09T04:46:12.384Z,10.96
2022-11-09T04:48:39.764Z,10.97
2022-11-09T04:51:10.481Z,10.97
2022-11-09T04:53:38.888Z,10.91
2022-11-09T04:56:07.975Z,10.86
2022-11-09T04:58:35.529Z,10.86
2022-11-09T05:01:09.330Z,10.81
2022-11-09T05:03:37.112Z,10.78
2022-11-09T05:06:23.688Z,10.77
2022-11-09T05:08:52.112Z,10.81
2022-11-09T05:11:19.337Z,10.85
2022-11-09T05:13:46.801Z,10.89
2022-11-09T05:16:14.843Z,10.90
2022-11-09T05:18:42.018Z,10.90
2022-11-09T05:21:09.678Z,10.90
2022-11-09T05:23:55.330Z,10.88
2022-11-09T05:26:22.910Z,10.87
2022-11-09T05:28:50.052Z,10.82
2022-11-09T05:31:17.195Z,10.82
2022-11-09T05:33:44.631Z,10.79
2022-11-09T05:36:11.808Z,10.70
2022-11-09T05:38:38.949Z,10.66
2022-11-09T05:41:06.161Z,10.66
2022-11-09T05:43:33.437Z,10.65
2022-11-09T05:46:05.453Z,10.66
2022-11-09T05:48:34.008Z,10.67
2022-11-09T05:51:06.713Z,10.71
2022-11-09T05:53:33.958Z,10.70
2022-11-09T05:56:09.315Z,10.72
2022-11-09T05:58:38.768Z,10.77
2022-11-09T06:01:09.961Z,10.76
2022-11-09T06:03:37.456Z,10.76
2022-11-09T06:06:09.095Z,10.72
2022-11-09T06:08:36.989Z,10.72
2022-11-09T06:11:09.381Z,10.74
2022-11-09T06:13:36.956Z,10.77
2022-11-09T06:16:06.374Z,10.72
2022-11-09T06:18:36.301Z,10.71
2022-11-09T06:21:06.004Z,10.74
2022-11-09T06:23:34.346Z,10.74
2022-11-09T06:26:10.351Z,10.71
2022-11-09T06:28:42.358Z,10.74
2022-11-09T06:31:15.816Z,10.73
2022-11-09T06:33:43.477Z,10.76
2022-11-09T06:36:11.526Z,10.77
2022-11-09T06:38:39.264Z,10.74
2022-11-09T06:41:06.737Z,10.73
2022-11-09T06:43:34.016Z,10.79
2022-11-09T06:46:05.318Z,10.80
2022-11-09T06:48:32.557Z,10.78
2022-11-09T06:51:05.384Z,10.84
2022-11-09T06:53:34.934Z,10.85
2022-11-09T06:56:05.190Z,10.87
2022-11-09T06:58:32.853Z,10.89
2022-11-09T07:01:00.397Z,10.89
2022-11-09T07:03:27.840Z,10.96
2022-11-09T07:05:55.033Z,10.94
2022-11-09T07:08:22.378Z,10.96
2022-11-09T07:10:49.631Z,10.97
2022-11-09T07:13:16.902Z,11.02
2022-11-09T07:15:44.382Z,11.04
2022-11-09T07:18:13.159Z,11.10
2022-11-09T07:20:40.439Z,11.13
2022-11-09T07:23:07.677Z,11.18
2022-11-09T07:25:35.108Z,11.23
2022-11-09T07:28:08.512Z,11.23
2022-11-09T07:30:39.203Z,11.23
2022-11-09T07:33:18.023Z,11.19
2022-11-09T07:35:46.701Z,11.16
2022-11-09T07:38:19.647Z,11.16
2022-11-09T07:40:47.000Z,11.11
2022-11-09T07:43:14.354Z,11.10
2022-11-09T07:45:43.054Z,11.09
2022-11-09T07:48:12.404Z,11.08
2022-11-09T07:50:41.324Z,11.01
2022-11-09T07:53:13.667Z,10.93
2022-11-09T07:55:41.836Z,10.90
2022-11-09T07:58:16.573Z,10.94
2022-11-09T08:00:44.561Z,10.95
2022-11-09T08:03:12.293Z,10.94
2022-11-09T08:05:39.838Z,10.87
2022-11-09T08:08:11.389Z,10.87
2022-11-09T08:10:39.739Z,10.88
2022-11-09T08:13:13.469Z,10.84
2022-11-09T08:15:42.344Z,10.73
2022-11-09T08:18:18.736Z,10.70
2022-11-09T08:20:47.065Z,10.67
2022-11-09T08:23:17.874Z,10.60
2022-11-09T08:25:45.987Z,10.66
2022-11-09T08:28:16.134Z,10.70
2022-11-09T08:30:45.415Z,10.65
2022-11-09T08:33:13.634Z,10.64
2022-11-09T08:35:40.846Z,10.69
2022-11-09T08:38:07.975Z,10.79
2022-11-09T08:40:35.207Z,10.91
2022-11-09T08:43:07.755Z,10.99
2022-11-09T08:45:38.746Z,10.98
2022-11-09T08:48:08.166Z,10.98
2022-11-09T08:50:37.144Z,11.04
2022-11-09T08:53:05.592Z,11.05
2022-11-09T08:55:33.029Z,11.00
2022-11-09T08:58:03.764Z,11.03
2022-11-09T09:00:31.422Z,11.03
2022-11-09T09:02:59.100Z,11.05
2022-11-09T09:05:26.680Z,11.09
2022-11-09T09:07:53.955Z,11.06
2022-11-09T09:10:21.182Z,11.05
2022-11-09T09:12:48.486Z,11.04
2022-11-09T09:15:15.855Z,11.02
2022-11-09T09:17:43.207Z,11.04
2022-11-09T09:20:11.132Z,10.99
2022-11-09T09:22:38.465Z,10.98
2022-11-09T09:25:06.934Z,10.96
2022-11-09T09:27:34.220Z,10.99
2022-11-09T09:30:01.487Z,11.02
2022-11-09T09:32:29.721Z,11.06
2022-11-09T09:34:57.078Z,11.13
2022-11-09T09:37:24.356Z,11.17
2022-11-09T09:39:51.626Z,11.15
2022-11-09T09:42:27.692Z,11.08
2022-11-09T09:45:24.819Z,11.04
2022-11-09T09:48:36.966Z,11.07
2022-11-09T09:51:32.765Z,11.10
2022-11-09T09:54:16.416Z,11.09
2022-11-09T09:56:47.399Z,11.11
2022-11-09T09:59:43.951Z,11.12
2022-11-09T10:02:22.295Z,11.17
2022-11-09T10:04:50.096Z,11.14
2022-11-09T10:07:49.697Z,11.15
2022-11-09T10:10:44.578Z,11.08
2022-11-09T10:14:07.972Z,11.04
2022-11-09T10:17:16.513Z,11.05
2022-11-09T10:20:15.595Z,11.10
2022-11-09T10:23:42.586Z,11.11
2022-11-09T10:26:28.220Z,11.15
2022-11-09T10:29:16.159Z,11.13
2022-11-09T10:31:47.667Z,11.14
2022-11-09T10:34:29.910Z,11.14
2022-11-09T10:37:41.164Z,11.15
2022-11-09T10:40:35.288Z,11.13
2022-11-09T10:43:21.254Z,11.10
2022-11-09T10:46:09.172Z,11.12
2022-11-09T10:48:55.647Z,11.12
2022-11-09T10:51:48.049Z,11.07
2022-11-09T10:54:37.998Z,11.07
2022-11-09T10:57:25.630Z,11.09
2022-11-09T11:00:19.189Z,11.11
2022-11-09T11:03:36.483Z,11.11
2022-11-09T11:06:22.054Z,11.04
2022-11-09T11:09:07.578Z,11.05
2022-11-09T11:12:17.581Z,11.04
2022-11-09T11:15:26.286Z,11.08
2022-11-09T11:18:23.456Z,11.17
2022-11-09T11:21:21.719Z,11.28
2022-11-09T11:24:20.970Z,11.41
2022-11-09T11:27:34.820Z,11.46
2022-11-09T11:30:37.374Z,11.42
2022-11-09T11:33:23.925Z,11.44
2022-11-09T11:36:30.823Z,11.44
2022-11-09T11:39:58.096Z,11.33
2022-11-09T11:43:29.521Z,11.36
2022-11-09T11:46:34.287Z,11.41
2022-11-09T11:50:02.750Z,11.42
2022-11-09T11:53:23.453Z,11.49
2022-11-09T11:56:35.073Z,11.51
2022-11-09T12:00:10.656Z,11.51
2022-11-09T12:04:06.479Z,11.63
2022-11-09T12:07:06.215Z,11.68
2022-11-09T12:10:25.096Z,11.64
2022-11-09T12:13:44.492Z,11.60
2022-11-09T12:17:11.682Z,11.65
2022-11-09T12:20:16.452Z,11.68
2022-11-09T12:23:39.131Z,11.84
2022-11-09T12:27:32.071Z,11.84
2022-11-09T12:30:28.334Z,11.54
2022-11-09T12:33:43.380Z,11.48
2022-11-09T12:36:57.188Z,11.45
2022-11-09T12:39:54.713Z,11.51
2022-11-09T12:42:58.076Z,11.49
2022-11-09T12:45:44.447Z,11.41
2022-11-09T12:48:35.316Z,11.39
2022-11-09T12:51:22.664Z,11.37
2022-11-09T12:54:11.654Z,11.38
2022-11-09T12:57:27.776Z,11.22
2022-11-09T13:00:35.440Z,11.21
2022-11-09T13:03:30.542Z,11.16
2022-11-09T13:06:27.666Z,11.10
2022-11-09T13:09:16.582Z,11.16
2022-11-09T13:12:27.213Z,11.12
2022-11-09T13:15:30.677Z,11.14
2022-11-09T13:18:51.352Z,11.20
2022-11-09T13:21:39.571Z,11.15
2022-11-09T13:24:51.790Z,11.11
2022-11-09T13:27:47.065Z,11.17
2022-11-09T13:30:43.789Z,11.13
2022-11-09T13:33:31.980Z,11.22
2022-11-09T13:36:19.867Z,11.32
2022-11-09T13:39:32.901Z,11.40
2022-11-09T13:42:36.618Z,11.31
2022-11-09T13:45:37.327Z,11.14
2022-11-09T13:48:38.983Z,11.12
2022-11-09T13:51:47.422Z,11.12
2022-11-09T13:54:37.397Z,11.16
2022-11-09T13:57:24.780Z,11.20
2022-11-09T14:00:25.024Z,11.21
2022-11-09T14:03:29.503Z,11.18
2022-11-09T14:06:15.228Z,11.21
2022-11-09T14:09:02.889Z,11.21
2022-11-09T14:12:42.047Z,11.17
2022-11-09T14:16:15.146Z,11.19
2022-11-09T14:19:17.583Z,11.16
2022-11-09T14:22:03.155Z,11.07
2022-11-09T14:24:49.225Z,11.06
2022-11-09T14:27:35.234Z,11.10
2022-11-09T14:30:28.928Z,11.11
2022-11-09T14:33:34.342Z,11.19
2022-11-09T14:36:22.241Z,11.19
2022-11-09T14:39:34.221Z,11.22
2022-11-09T14:42:23.613Z,11.26
2022-11-09T14:45:16.504Z,11.22
2022-11-09T14:48:02.457Z,11.18
2022-11-09T14:50:50.370Z,11.18
2022-11-09T14:53:38.956Z,11.20
2022-11-09T14:56:25.377Z,11.16
2022-11-09T14:59:20.205Z,11.16
2022-11-09T15:02:12.227Z,11.16
2022-11-09T15:05:04.364Z,11.14
2022-11-09T15:07:50.465Z,11.09
2022-11-09T15:10:36.782Z,10.98
2022-11-09T15:13:38.129Z,10.97
2022-11-09T15:16:29.716Z,11.00
2022-11-09T15:20:01.010Z,10.99
2022-11-09T15:23:04.551Z,11.01
2022-11-09T15:25:50.478Z,10.98
2022-11-09T15:28:51.382Z,11.02
2022-11-09T15:31:37.200Z,11.04
2022-11-09T15:34:29.076Z,10.97
2022-11-09T15:37:43.054Z,10.98
2022-11-09T15:40:28.997Z,11.02
2022-11-09T15:43:14.883Z,10.99
2022-11-09T15:46:01.469Z,10.99
2022-11-09T15:48:47.296Z,10.95
2022-11-09T15:51:33.228Z,11.00
2022-11-09T15:54:19.816Z,10.96
2022-11-09T15:57:05.593Z,10.90
2022-11-09T15:59:51.910Z,10.84
2022-11-09T16:02:37.845Z,10.86
2022-11-09T16:05:27.645Z,10.88
2022-11-09T16:08:13.577Z,10.91
2022-11-09T16:11:05.891Z,10.92
2022-11-09T16:13:51.826Z,10.93
2022-11-09T16:16:37.639Z,10.91
2022-11-09T16:19:23.570Z,10.91
2022-11-09T16:25:16.344Z,10.99
2022-11-09T16:28:02.333Z,10.97
2022-11-09T16:30:48.243Z,10.95
2022-11-09T16:33:35.089Z,10.95
2022-11-09T16:36:25.460Z,10.92
2022-11-09T16:39:18.393Z,10.96
2022-11-09T16:42:09.098Z,10.95
2022-11-09T16:45:00.078Z,10.94
2022-11-09T16:47:52.070Z,10.97
2022-11-09T16:50:37.833Z,10.95
2022-11-09T16:53:26.946Z,10.91
2022-11-09T16:56:13.649Z,10.90
2022-11-09T16:59:00.507Z,10.91
2022-11-09T17:01:58.513Z,10.90
2022-11-09T17:04:44.771Z,10.89
2022-11-09T17:07:31.889Z,10.84
2022-11-09T17:10:17.685Z,10.83
2022-11-09T17:13:03.257Z,10.84
2022-11-09T17:15:54.347Z,10.86
2022-11-09T17:18:42.732Z,10.88
2022-11-09T17:21:29.977Z,10.85
2022-11-09T17:24:16.251Z,10.80
2022-11-09T17:27:02.268Z,10.77
2022-11-09T17:29:47.871Z,10.77
2022-11-09T17:32:34.255Z,10.77
2022-11-09T17:35:20.298Z,10.78
2022-11-09T17:38:05.891Z,10.81
2022-11-09T17:40:51.680Z,10.81
2022-11-09T17:43:40.704Z,10.82
2022-11-09T17:46:26.526Z,10.86
2022-11-09T17:49:12.619Z,10.88
2022-11-09T17:51:58.410Z,10.81
2022-11-09T17:54:44.805Z,10.82
2022-11-09T17:57:32.372Z,10.80
2022-11-09T18:00:19.158Z,10.76
2022-11-09T18:03:04.735Z,10.73
2022-11-09T18:05:50.635Z,10.73
2022-11-09T18:08:36.643Z,10.74
2022-11-09T18:11:22.534Z,10.76
2022-11-09T18:14:08.380Z,10.78
2022-11-09T18:16:54.066Z,10.77
2022-11-09T18:19:40.041Z,10.76
2022-11-09T18:22:25.764Z,10.76
2022-11-09T18:25:12.127Z,10.73
2022-11-09T18:27:58.066Z,10.72
2022-11-09T18:30:43.628Z,10.73
2022-11-09T18:33:30.808Z,10.75
2022-11-09T18:36:21.111Z,10.70
2022-11-09T18:39:07.328Z,10.74
2022-11-09T18:41:54.589Z,10.74
2022-11-09T18:44:40.632Z,10.73
2022-11-09T18:47:26.142Z,10.72
2022-11-09T18:50:12.052Z,10.70
2022-11-09T18:52:58.051Z,10.70
2022-11-09T18:55:43.585Z,10.69
2022-11-09T18:58:31.389Z,10.70
2022-11-09T19:01:17.333Z,10.66
2022-11-09T19:04:03.129Z,10.65
2022-11-09T19:06:49.258Z,10.66
2022-11-09T19:09:35.651Z,10.71
2022-11-09T19:12:21.562Z,10.70
2022-11-09T19:15:08.124Z,10.73
2022-11-09T19:17:54.416Z,10.74
2022-11-09T19:20:40.102Z,10.69
2022-11-09T19:23:31.295Z,10.68
2022-11-09T19:26:23.964Z,10.70
2022-11-09T19:29:13.018Z,10.70
2022-11-09T19:31:59.332Z,10.68
2022-11-09T19:34:46.629Z,10.68
2022-11-09T19:37:32.458Z,10.61
2022-11-09T19:40:18.564Z,10.57
2022-11-09T19:43:04.209Z,10.61
2022-11-09T19:45:50.656Z,10.61
2022-11-09T19:48:37.151Z,10.60
2022-11-09T19:51:24.218Z,10.67
2022-11-09T19:54:12.825Z,10.66
2022-11-09T19:56:58.564Z,10.61
2022-11-09T19:59:45.695Z,10.62
2022-11-09T20:02:31.686Z,10.64
2022-11-09T20:05:17.854Z,10.60
2022-11-09T20:08:05.537Z,10.59
2022-11-09T20:10:54.295Z,10.57
2022-11-09T20:13:43.966Z,10.65
2022-11-09T20:16:33.086Z,10.66
2022-11-09T20:19:19.976Z,10.68
2022-11-09T20:22:07.079Z,10.68
2022-11-09T20:24:59.026Z,10.61
2022-11-09T20:27:45.611Z,10.58
2022-11-09T20:30:44.767Z,10.57
2022-11-09T20:33:32.748Z,10.61
2022-11-09T20:36:22.427Z,10.66
2022-11-09T20:39:11.425Z,10.69
2022-11-09T20:42:00.943Z,10.71
2022-11-09T20:44:49.837Z,10.72
2022-11-09T20:48:03.212Z,10.73
2022-11-09T20:50:44.449Z,10.69
2022-11-09T20:53:32.304Z,10.68
2022-11-09T20:56:20.771Z,10.71
2022-11-09T20:59:09.234Z,10.68
2022-11-09T21:01:56.585Z,10.66
2022-11-09T21:04:45.398Z,10.71
2022-11-09T21:07:32.245Z,10.74
2022-11-09T21:10:18.861Z,10.72
2022-11-09T21:13:09.913Z,10.70
2022-11-09T21:15:57.655Z,10.68
2022-11-09T21:18:47.450Z,10.66
2022-11-09T21:21:36.748Z,10.60
2022-11-09T21:24:41.885Z,10.56
2022-11-09T21:27:48.206Z,10.63
2022-11-09T21:30:35.107Z,10.65
2022-11-09T21:33:21.490Z,10.64
2022-11-09T21:36:15.237Z,10.69
2022-11-09T21:39:04.913Z,10.70
2022-11-09T21:41:53.331Z,10.68
2022-11-09T21:44:40.866Z,10.68
2022-11-09T21:47:27.030Z,10.67
2022-11-09T21:50:13.101Z,10.67
2022-11-09T21:52:59.279Z,10.72
2022-11-09T21:55:45.336Z,10.80
2022-11-09T21:58:31.440Z,10.78
2022-11-09T22:01:18.472Z,10.74
2022-11-09T22:04:05.987Z,10.70
2022-11-09T22:06:51.633Z,10.74
2022-11-09T22:10:05.991Z,10.71
2022-11-09T22:13:02.202Z,10.67
2022-11-09T22:16:06.540Z,10.68
2022-11-09T22:19:12.423Z,10.67
2022-11-09T22:21:58.144Z,10.68
2022-11-09T22:24:44.411Z,10.70
2022-11-09T22:27:32.195Z,10.67
2022-11-09T22:30:17.911Z,10.68
2022-11-09T22:33:04.075Z,10.61
2022-11-09T22:35:58.125Z,10.60
2022-11-09T22:38:45.396Z,10.55
2022-11-09T22:41:31.143Z,10.55
2022-11-09T22:44:17.162Z,10.54
2022-11-09T22:47:03.836Z,10.54
2022-11-09T22:49:49.773Z,10.53
2022-11-09T22:52:35.823Z,10.60
2022-11-09T22:55:21.586Z,10.63
2022-11-09T22:58:07.622Z,10.62
2022-11-09T23:00:54.146Z,10.60
2022-11-09T23:03:40.574Z,10.61
2022-11-09T23:06:27.064Z,10.61
2022-11-09T23:09:12.846Z,10.61
2022-11-09T23:11:58.697Z,10.63
2022-11-09T23:15:03.067Z,10.60
2022-11-09T23:18:07.577Z,10.66
2022-11-09T23:20:53.658Z,10.67
2022-11-09T23:23:40.334Z,10.69
2022-11-09T23:26:27.805Z,10.72
2022-11-09T23:29:13.964Z,10.71
2022-11-09T23:31:59.644Z,10.71
2022-11-09T23:34:45.335Z,10.72
2022-11-09T23:37:31.286Z,10.72
2022-11-09T23:40:17.589Z,10.69
2022-11-09T23:43:10.991Z,10.70
2022-11-09T23:46:00.575Z,10.73
2022-11-09T23:48:46.650Z,10.72
2022-11-09T23:51:32.555Z,10.70
2022-11-09T23:54:18.416Z,10.65
2022-11-09T23:57:04.995Z,10.66
2022-11-09T23:59:50.795Z,10.69
